Quitman, MS (39355)

4:38 AM CST on December 07, 2016 (GMT -0600)
JRHC - Snell | | Change Station

Elev 427 ft 32.19 °N, 88.50 °W | Updated 8 seconds ago

Overcast
Overcast
47.7 °F
Feels Like 48 °F
N
0.0
Wind Variable Wind from East
Gusts 1.0 mph

Today
High -- | Low -- °F
--% Chance of Precip.
Yesterday
High -- | Low -- °F
Precip. -- in
Pressure 30.06 in
Visibility 10.0 miles
Clouds Overcast 1100 ft
Windchill 48 °F
Dew Point 45 °F
Humidity 91%
Rainfall 0.00 in
Snow Depth Not available.
6:42 AM 4:50 PM
Waxing Crescent, 51% visible
METAR KMEI 070958Z AUTO 00000KT 10SM OVC011 10/07 A3006 RMK AO2 SLP177 T01000067
Pressure 30.06 in
Visibility 10.0 miles
Clouds Overcast 1100 ft
Windchill 48 °F
Dew Point 45 °F
Humidity 91%
Rainfall 0.00 in
Snow Depth Not available.
6:42 AM 4:50 PM
Waxing Crescent, 51% visible
METAR KMEI 070958Z AUTO 00000KT 10SM OVC011 10/07 A3006 RMK AO2 SLP177 T01000067

10-Day Weather Forecast

Almanac

Astronomy

Dec. 07, 2016 Rise Set
Actual Time
Civil Twilight
Nautical Twilight
Astronomical Twilight
Moon
Length of Visible Light
Length of Day
Tomorrow will be .
, % of the Moon is Illuminated

Today's Extremes

State Highs State Lows

Community

WunderPhotos

Upload Photos

1,956,111 photos uploaded!

WunderBlog® & News

Nearby

Air Quality

  Air Quality AQ Index Pollutant
Not available.

Snow Depth

Station Depth Elevation

Earthquake Activity

City Distance Mag. Time & Date
Minimum magnitude displayed is 2.5.

Coastal Water Temperatures

Place Temperature

Stations

Nearby Weather Stations

Station Location Temp. Windchill Dew Point Humidity Wind Precip. Elev Updated Type
                   

Watches & Warnings

There are currently no watches in effect.